Estación Meteorológica Peña el Pijo (Robertgarden) [ 10/20/18 09:23:39 CEST ]

Fecha Hora Presion(HPa) Temp (°C) Humedad % Rocio (°C) Viento ( m/s) Direccion Lluvia 1Hora(mm) Lluvia 24H(mm) LLuvia Total(mm)
2018-Apr-27 01:01:46 1008.600 10.4 72 5.6         203.05
2018-Apr-27 02:02:02 1008.400 11.2 73 6.5         203.05
2018-Apr-27 03:01:53 1007.300 10.4 74 6.0         203.05
2018-Apr-27 04:01:48 1006.700 11.4 78 7.7         203.05
2018-Apr-27 05:01:49 1006.300 11.4 79 7.9         203.05
2018-Apr-27 06:01:50 1006.300 11.9 80 8.6         203.05
2018-Apr-27 07:01:53 1006.100 12.1 80 8.8         203.05
2018-Apr-27 08:01:44 1006.300 11.9 80 8.6         203.05
2018-Apr-27 09:02:02 1006.400 15.9 73 11.1         203.05
2018-Apr-27 10:01:41 1006.400 18.4 61 10.7 1.4 WNW     203.05
2018-Apr-27 11:01:47 1006.400 20.3 54 10.7         203.05
2018-Apr-27 12:01:55 1006.300 24.2 43 10.8         203.05
2018-Apr-27 13:01:50 1006.100 25.1 38 9.7 1.9 WSW     203.05
2018-Apr-27 14:01:50 1005.400 23.9 38 8.7         203.05
2018-Apr-27 15:01:54 1005.000 25.7 32 7.7         203.05
2018-Apr-27 16:01:42 1004.500 26.5 31 8.0         203.05
2018-Apr-27 17:01:45 1004.300 25.6 32 7.6         203.05
2018-Apr-27 18:01:40 1004.200 24.3 35 7.8         203.05
2018-Apr-27 19:01:30 1004.800 20.5 43 7.4         203.05
2018-Apr-27 20:01:50 1004.500 19.3 49 8.3         203.05
2018-Apr-27 21:01:36 1004.900 17.6 53 8.0         203.05
2018-Apr-27 22:01:55 1005.800 14.9 60 7.2         203.05
2018-Apr-27 23:01:32 1005.900 12.8 67 6.8         203.05

Temperatura Máxima:26°    Temperatura Mínima:10°
Presión Máxima:1008.600 Hpa    Presión Mínima:1004.200 Hpa


Volver